Portada
METAR-TAF:

METAR-TAF

Aeropuertos :

Aeropuerto de Valencia

Valencia, España

latitud: 39-30N, longitud: 000-28W, altitud: 69 m

Observación

El informe se hizo hace 38 minutos, a las 17:30 UTC
Viento 6 kt del este-sureste
Temperatura 22°C
Humedad 69%
Presión 1025 hPa
Visibilidad 10 km o más
sin nubes por debajo de 1500 m y sin presencia de cumulonimbus.

METAR: LEVC 191730Z 12006KT CAVOK 22/16 Q1025 NOSIG

Hora: 20:08 (18:08 UTC)

Pronóstico

El informe se hizo hace 1 hora y 8 minutos, a las 17:00 UTC
Pronóstico válido del 19 a las 18 UTC al 20 a las 18 UTC
Viento 10 kt del sureste
Visibilidad 10 km o más
Escasas nubes a una altura de 3500 ft
Evolucionando progresivamente
del 19 a las 20 UTC al 19 a las 23 UTC
Viento 5 kt del noroeste
Evolucionando progresivamente
del 20 a las 10 UTC al 20 a las 13 UTC
Viento 10 kt del sureste

TAF: LEVC 191700Z 1918/2018 13010KT 9999 FEW035 TX27/2012Z TN14/2006Z BECMG 1920/1923 31005KT BECMG 2010/2013 14010KT

Observaciones y pronósticos meteorológicos de más de 4000 aeropuertos (mensajes METAR y TAF).

Los puntos amarillos y rojos representan las estaciones disponibles.

Ponga el ratón en el punto deseado para ver el nombre de la estación.

Haga clic para ver las observaciones y los pronósticos meteorológicos.

Para cambiar el mapa : haga clic en los botones verdes con una cruz de color negro para hacer un zoom, en el botón verde con un guión para alejar o en las flechas verdes para mapas adyacentes.


METAR-TAF: